sensor_id;sensor_type;location;lat;lon;timestamp;P1;durP1;ratioP1;P2;durP2;ratioP2
67602;SDS011;54417;47.454;18.918;2023-02-13T00:02:08;46.83;;;22.08;;
67602;SDS011;54417;47.454;18.918;2023-02-13T00:07:32;42.22;;;19.65;;
67602;SDS011;54417;47.454;18.918;2023-02-13T00:12:57;40.15;;;20.55;;
67602;SDS011;54417;47.454;18.918;2023-02-13T00:18:21;34.67;;;18.60;;
67602;SDS011;54417;47.454;18.918;2023-02-13T00:23:45;36.70;;;19.02;;
67602;SDS011;54417;47.454;18.918;2023-02-13T00:29:10;35.38;;;18.65;;
67602;SDS011;54417;47.454;18.918;2023-02-13T00:34:37;38.42;;;19.92;;
67602;SDS011;54417;47.454;18.918;2023-02-13T00:40:01;39.00;;;19.77;;
67602;SDS011;54417;47.454;18.918;2023-02-13T00:45:26;40.20;;;19.95;;
67602;SDS011;54417;47.454;18.918;2023-02-13T00:50:50;46.72;;;19.98;;
67602;SDS011;54417;47.454;18.918;2023-02-13T00:56:15;36.83;;;20.35;;
67602;SDS011;54417;47.454;18.918;2023-02-13T01:01:40;36.92;;;17.55;;
67602;SDS011;54417;47.454;18.918;2023-02-13T01:07:04;36.70;;;18.70;;
67602;SDS011;54417;47.454;18.918;2023-02-13T01:12:29;38.47;;;18.58;;
67602;SDS011;54417;47.454;18.918;2023-02-13T01:17:54;35.35;;;17.98;;
67602;SDS011;54417;47.454;18.918;2023-02-13T01:23:20;43.50;;;19.52;;
67602;SDS011;54417;47.454;18.918;2023-02-13T01:28:46;36.35;;;17.58;;
67602;SDS011;54417;47.454;18.918;2023-02-13T01:34:11;35.65;;;17.95;;
67602;SDS011;54417;47.454;18.918;2023-02-13T01:39:35;35.33;;;17.08;;
67602;SDS011;54417;47.454;18.918;2023-02-13T01:44:59;37.88;;;18.42;;
67602;SDS011;54417;47.454;18.918;2023-02-13T01:50:28;37.88;;;17.80;;
67602;SDS011;54417;47.454;18.918;2023-02-13T01:55:56;48.30;;;19.30;;
67602;SDS011;54417;47.454;18.918;2023-02-13T02:01:23;32.70;;;16.08;;
67602;SDS011;54417;47.454;18.918;2023-02-13T02:06:51;36.42;;;15.55;;
67602;SDS011;54417;47.454;18.918;2023-02-13T02:12:25;30.17;;;14.20;;
67602;SDS011;54417;47.454;18.918;2023-02-13T02:17:54;22.25;;;12.18;;
67602;SDS011;54417;47.454;18.918;2023-02-13T02:23:28;31.63;;;15.20;;
67602;SDS011;54417;47.454;18.918;2023-02-13T02:29:17;33.80;;;15.27;;
67602;SDS011;54417;47.454;18.918;2023-02-13T02:35:03;25.75;;;13.95;;
67602;SDS011;54417;47.454;18.918;2023-02-13T02:40:36;27.42;;;14.55;;
67602;SDS011;54417;47.454;18.918;2023-02-13T02:46:11;41.90;;;16.23;;
67602;SDS011;54417;47.454;18.918;2023-02-13T02:51:43;31.40;;;14.63;;
67602;SDS011;54417;47.454;18.918;2023-02-13T02:57:11;25.50;;;13.07;;
67602;SDS011;54417;47.454;18.918;2023-02-13T03:02:44;25.67;;;13.60;;
67602;SDS011;54417;47.454;18.918;2023-02-13T03:08:28;24.90;;;13.27;;
67602;SDS011;54417;47.454;18.918;2023-02-13T03:14:06;20.20;;;11.88;;
67602;SDS011;54417;47.454;18.918;2023-02-13T03:19:37;25.15;;;12.10;;
67602;SDS011;54417;47.454;18.918;2023-02-13T03:25:34;23.48;;;12.02;;
67602;SDS011;54417;47.454;18.918;2023-02-13T03:31:05;30.27;;;11.88;;
67602;SDS011;54417;47.454;18.918;2023-02-13T03:36:44;20.40;;;11.02;;
67602;SDS011;54417;47.454;18.918;2023-02-13T03:42:29;21.40;;;10.48;;
67602;SDS011;54417;47.454;18.918;2023-02-13T03:47:57;18.48;;;10.20;;
67602;SDS011;54417;47.454;18.918;2023-02-13T03:53:31;21.08;;;11.02;;
67602;SDS011;54417;47.454;18.918;2023-02-13T03:58:59;24.65;;;12.95;;
67602;SDS011;54417;47.454;18.918;2023-02-13T04:04:39;15.75;;;8.32;;
67602;SDS011;54417;47.454;18.918;2023-02-13T04:10:09;16.47;;;8.73;;
67602;SDS011;54417;47.454;18.918;2023-02-13T04:15:38;21.17;;;9.52;;
67602;SDS011;54417;47.454;18.918;2023-02-13T04:21:05;16.63;;;9.98;;
67602;SDS011;54417;47.454;18.918;2023-02-13T04:26:32;15.15;;;8.48;;
67602;SDS011;54417;47.454;18.918;2023-02-13T04:31:58;14.43;;;8.73;;
67602;SDS011;54417;47.454;18.918;2023-02-13T04:37:22;16.70;;;9.18;;
67602;SDS011;54417;47.454;18.918;2023-02-13T04:42:46;16.33;;;8.80;;
67602;SDS011;54417;47.454;18.918;2023-02-13T04:48:12;12.70;;;8.07;;
67602;SDS011;54417;47.454;18.918;2023-02-13T04:53:36;15.20;;;8.65;;
67602;SDS011;54417;47.454;18.918;2023-02-13T04:58:59;14.65;;;8.70;;
67602;SDS011;54417;47.454;18.918;2023-02-13T05:04:24;13.18;;;7.38;;
67602;SDS011;54417;47.454;18.918;2023-02-13T05:09:50;16.80;;;9.07;;
67602;SDS011;54417;47.454;18.918;2023-02-13T05:15:13;15.77;;;8.40;;
67602;SDS011;54417;47.454;18.918;2023-02-13T05:20:39;15.75;;;9.07;;
67602;SDS011;54417;47.454;18.918;2023-02-13T05:26:03;14.23;;;8.52;;
67602;SDS011;54417;47.454;18.918;2023-02-13T05:31:26;15.88;;;8.35;;
67602;SDS011;54417;47.454;18.918;2023-02-13T05:36:52;16.65;;;7.70;;
67602;SDS011;54417;47.454;18.918;2023-02-13T05:42:16;13.13;;;7.38;;
67602;SDS011;54417;47.454;18.918;2023-02-13T05:47:40;15.77;;;8.20;;
67602;SDS011;54417;47.454;18.918;2023-02-13T05:53:05;14.27;;;6.57;;
67602;SDS011;54417;47.454;18.918;2023-02-13T05:58:29;18.27;;;8.50;;
67602;SDS011;54417;47.454;18.918;2023-02-13T06:03:53;17.38;;;9.38;;
67602;SDS011;54417;47.454;18.918;2023-02-13T06:09:21;14.32;;;8.25;;
67602;SDS011;54417;47.454;18.918;2023-02-13T06:14:45;32.88;;;12.52;;
67602;SDS011;54417;47.454;18.918;2023-02-13T06:20:09;31.73;;;13.90;;
67602;SDS011;54417;47.454;18.918;2023-02-13T06:25:34;25.58;;;10.20;;
67602;SDS011;54417;47.454;18.918;2023-02-13T06:30:58;20.38;;;9.30;;
67602;SDS011;54417;47.454;18.918;2023-02-13T06:36:23;23.42;;;11.55;;
67602;SDS011;54417;47.454;18.918;2023-02-13T06:41:48;26.17;;;13.23;;
67602;SDS011;54417;47.454;18.918;2023-02-13T06:47:12;27.48;;;11.82;;
67602;SDS011;54417;47.454;18.918;2023-02-13T06:52:35;22.23;;;11.75;;
67602;SDS011;54417;47.454;18.918;2023-02-13T06:58:01;27.65;;;13.10;;
67602;SDS011;54417;47.454;18.918;2023-02-13T07:03:24;21.67;;;12.30;;
67602;SDS011;54417;47.454;18.918;2023-02-13T07:08:48;24.88;;;12.70;;
67602;SDS011;54417;47.454;18.918;2023-02-13T07:14:17;33.45;;;12.65;;
67602;SDS011;54417;47.454;18.918;2023-02-13T07:19:41;34.78;;;14.68;;
67602;SDS011;54417;47.454;18.918;2023-02-13T07:25:05;36.70;;;17.83;;
67602;SDS011;54417;47.454;18.918;2023-02-13T07:30:31;34.78;;;16.00;;
67602;SDS011;54417;47.454;18.918;2023-02-13T07:35:56;26.83;;;13.45;;
67602;SDS011;54417;47.454;18.918;2023-02-13T07:41:20;27.98;;;15.35;;
67602;SDS011;54417;47.454;18.918;2023-02-13T07:46:48;33.47;;;16.83;;
67602;SDS011;54417;47.454;18.918;2023-02-13T07:52:12;32.45;;;16.05;;
67602;SDS011;54417;47.454;18.918;2023-02-13T07:57:35;32.22;;;17.25;;
67602;SDS011;54417;47.454;18.918;2023-02-13T08:03:01;33.05;;;15.88;;
67602;SDS011;54417;47.454;18.918;2023-02-13T08:08:25;26.27;;;14.23;;
67602;SDS011;54417;47.454;18.918;2023-02-13T08:13:48;30.55;;;15.68;;
67602;SDS011;54417;47.454;18.918;2023-02-13T08:19:14;28.45;;;15.32;;
67602;SDS011;54417;47.454;18.918;2023-02-13T08:24:37;25.08;;;13.98;;
67602;SDS011;54417;47.454;18.918;2023-02-13T08:30:01;29.17;;;13.43;;
67602;SDS011;54417;47.454;18.918;2023-02-13T08:35:27;23.73;;;13.60;;
67602;SDS011;54417;47.454;18.918;2023-02-13T08:40:55;28.45;;;14.48;;
67602;SDS011;54417;47.454;18.918;2023-02-13T08:46:19;30.45;;;16.63;;
67602;SDS011;54417;47.454;18.918;2023-02-13T08:51:45;28.55;;;15.45;;
67602;SDS011;54417;47.454;18.918;2023-02-13T08:57:08;31.45;;;17.00;;
67602;SDS011;54417;47.454;18.918;2023-02-13T09:02:32;26.23;;;14.82;;
67602;SDS011;54417;47.454;18.918;2023-02-13T09:07:59;30.00;;;15.52;;
67602;SDS011;54417;47.454;18.918;2023-02-13T09:13:24;32.78;;;17.38;;
67602;SDS011;54417;47.454;18.918;2023-02-13T09:18:48;31.40;;;15.95;;
67602;SDS011;54417;47.454;18.918;2023-02-13T09:24:13;33.83;;;16.55;;
67602;SDS011;54417;47.454;18.918;2023-02-13T09:29:37;33.42;;;16.73;;
67602;SDS011;54417;47.454;18.918;2023-02-13T09:35:01;31.33;;;16.27;;
67602;SDS011;54417;47.454;18.918;2023-02-13T09:40:27;33.13;;;15.63;;
67602;SDS011;54417;47.454;18.918;2023-02-13T09:45:54;30.65;;;17.83;;
67602;SDS011;54417;47.454;18.918;2023-02-13T09:51:21;36.83;;;16.83;;
67602;SDS011;54417;47.454;18.918;2023-02-13T09:56:49;30.30;;;16.30;;
67602;SDS011;54417;47.454;18.918;2023-02-13T10:02:30;28.65;;;16.50;;
67602;SDS011;54417;47.454;18.918;2023-02-13T10:08:11;30.60;;;17.35;;
67602;SDS011;54417;47.454;18.918;2023-02-13T10:13:58;29.42;;;18.60;;
67602;SDS011;54417;47.454;18.918;2023-02-13T10:19:29;31.13;;;16.90;;
67602;SDS011;54417;47.454;18.918;2023-02-13T10:24:58;27.98;;;15.68;;
67602;SDS011;54417;47.454;18.918;2023-02-13T10:30:30;27.90;;;15.00;;
67602;SDS011;54417;47.454;18.918;2023-02-13T10:35:58;28.23;;;15.20;;
67602;SDS011;54417;47.454;18.918;2023-02-13T10:41:24;24.85;;;13.20;;
67602;SDS011;54417;47.454;18.918;2023-02-13T10:47:02;23.58;;;12.63;;
67602;SDS011;54417;47.454;18.918;2023-02-13T10:52:36;23.30;;;13.50;;
67602;SDS011;54417;47.454;18.918;2023-02-13T10:58:08;21.70;;;12.63;;
67602;SDS011;54417;47.454;18.918;2023-02-13T11:03:39;20.30;;;11.93;;
67602;SDS011;54417;47.454;18.918;2023-02-13T11:09:03;15.05;;;8.55;;
67602;SDS011;54417;47.454;18.918;2023-02-13T11:14:28;21.88;;;10.60;;
67602;SDS011;54417;47.454;18.918;2023-02-13T11:19:54;14.55;;;7.38;;
67602;SDS011;54417;47.454;18.918;2023-02-13T11:25:20;11.52;;;7.18;;
67602;SDS011;54417;47.454;18.918;2023-02-13T11:30:46;12.25;;;7.50;;
67602;SDS011;54417;47.454;18.918;2023-02-13T11:36:12;11.80;;;5.80;;
67602;SDS011;54417;47.454;18.918;2023-02-13T11:41:39;13.68;;;7.47;;
67602;SDS011;54417;47.454;18.918;2023-02-13T11:47:04;12.75;;;7.25;;
67602;SDS011;54417;47.454;18.918;2023-02-13T11:52:31;15.30;;;6.70;;
67602;SDS011;54417;47.454;18.918;2023-02-13T11:57:57;10.27;;;6.85;;
67602;SDS011;54417;47.454;18.918;2023-02-13T12:03:24;13.38;;;6.63;;
67602;SDS011;54417;47.454;18.918;2023-02-13T12:08:50;8.10;;;4.35;;
67602;SDS011;54417;47.454;18.918;2023-02-13T12:14:17;8.57;;;5.57;;
67602;SDS011;54417;47.454;18.918;2023-02-13T12:19:44;10.15;;;5.95;;
67602;SDS011;54417;47.454;18.918;2023-02-13T12:25:16;10.07;;;5.78;;
67602;SDS011;54417;47.454;18.918;2023-02-13T12:31:00;6.13;;;4.28;;
67602;SDS011;54417;47.454;18.918;2023-02-13T12:36:46;11.38;;;5.50;;
67602;SDS011;54417;47.454;18.918;2023-02-13T12:42:27;9.60;;;3.45;;
67602;SDS011;54417;47.454;18.918;2023-02-13T12:48:05;6.83;;;4.43;;
67602;SDS011;54417;47.454;18.918;2023-02-13T12:53:42;5.90;;;4.38;;
67602;SDS011;54417;47.454;18.918;2023-02-13T12:59:29;9.13;;;4.60;;
67602;SDS011;54417;47.454;18.918;2023-02-13T13:05:03;6.57;;;3.80;;
67602;SDS011;54417;47.454;18.918;2023-02-13T13:10:47;7.63;;;4.47;;
67602;SDS011;54417;47.454;18.918;2023-02-13T13:16:24;7.13;;;4.50;;
67602;SDS011;54417;47.454;18.918;2023-02-13T13:21:56;8.05;;;3.67;;
67602;SDS011;54417;47.454;18.918;2023-02-13T13:27:24;4.40;;;2.63;;
67602;SDS011;54417;47.454;18.918;2023-02-13T13:32:53;5.57;;;4.18;;
67602;SDS011;54417;47.454;18.918;2023-02-13T13:38:22;5.93;;;3.95;;
67602;SDS011;54417;47.454;18.918;2023-02-13T13:44:03;5.03;;;3.30;;
67602;SDS011;54417;47.454;18.918;2023-02-13T13:49:39;9.30;;;4.80;;
67602;SDS011;54417;47.454;18.918;2023-02-13T13:55:13;10.88;;;5.57;;
67602;SDS011;54417;47.454;18.918;2023-02-13T14:01:18;9.95;;;5.10;;
67602;SDS011;54417;47.454;18.918;2023-02-13T14:12:45;9.07;;;4.93;;
67602;SDS011;54417;47.454;18.918;2023-02-13T14:18:15;9.27;;;4.70;;
67602;SDS011;54417;47.454;18.918;2023-02-13T14:23:44;9.18;;;6.40;;
67602;SDS011;54417;47.454;18.918;2023-02-13T14:34:57;10.23;;;6.60;;
67602;SDS011;54417;47.454;18.918;2023-02-13T14:51:57;14.45;;;8.63;;
67602;SDS011;54417;47.454;18.918;2023-02-13T14:57:25;10.80;;;6.72;;
67602;SDS011;54417;47.454;18.918;2023-02-13T15:02:52;11.27;;;6.18;;
67602;SDS011;54417;47.454;18.918;2023-02-13T15:08:19;15.35;;;7.40;;
67602;SDS011;54417;47.454;18.918;2023-02-13T15:13:48;11.52;;;6.55;;
67602;SDS011;54417;47.454;18.918;2023-02-13T15:19:13;18.65;;;8.35;;
67602;SDS011;54417;47.454;18.918;2023-02-13T15:24:42;14.00;;;7.20;;
67602;SDS011;54417;47.454;18.918;2023-02-13T15:30:18;12.02;;;6.53;;
67602;SDS011;54417;47.454;18.918;2023-02-13T15:35:45;14.13;;;6.20;;
67602;SDS011;54417;47.454;18.918;2023-02-13T15:41:10;11.38;;;5.85;;
67602;SDS011;54417;47.454;18.918;2023-02-13T15:46:41;12.57;;;6.10;;
67602;SDS011;54417;47.454;18.918;2023-02-13T15:52:07;11.55;;;6.40;;
67602;SDS011;54417;47.454;18.918;2023-02-13T15:57:39;10.65;;;7.03;;
67602;SDS011;54417;47.454;18.918;2023-02-13T16:03:05;12.35;;;5.90;;
67602;SDS011;54417;47.454;18.918;2023-02-13T16:08:37;10.05;;;5.45;;
67602;SDS011;54417;47.454;18.918;2023-02-13T16:14:06;10.63;;;6.38;;
67602;SDS011;54417;47.454;18.918;2023-02-13T16:19:36;14.95;;;5.88;;
67602;SDS011;54417;47.454;18.918;2023-02-13T16:25:16;10.75;;;5.85;;
67602;SDS011;54417;47.454;18.918;2023-02-13T16:30:43;12.25;;;6.00;;
67602;SDS011;54417;47.454;18.918;2023-02-13T16:36:25;9.77;;;5.18;;
67602;SDS011;54417;47.454;18.918;2023-02-13T16:41:50;15.03;;;6.33;;
67602;SDS011;54417;47.454;18.918;2023-02-13T16:47:18;27.13;;;14.70;;
67602;SDS011;54417;47.454;18.918;2023-02-13T16:52:47;16.87;;;8.13;;
67602;SDS011;54417;47.454;18.918;2023-02-13T16:58:11;15.48;;;8.20;;
67602;SDS011;54417;47.454;18.918;2023-02-13T17:03:37;37.95;;;17.80;;
67602;SDS011;54417;47.454;18.918;2023-02-13T17:09:02;31.65;;;15.68;;
67602;SDS011;54417;47.454;18.918;2023-02-13T17:14:26;22.77;;;11.25;;
67602;SDS011;54417;47.454;18.918;2023-02-13T17:19:50;18.40;;;9.05;;
67602;SDS011;54417;47.454;18.918;2023-02-13T17:25:17;14.48;;;7.75;;
67602;SDS011;54417;47.454;18.918;2023-02-13T17:30:43;20.40;;;7.03;;
67602;SDS011;54417;47.454;18.918;2023-02-13T17:36:08;12.85;;;7.13;;
67602;SDS011;54417;47.454;18.918;2023-02-13T17:41:36;14.55;;;8.25;;
67602;SDS011;54417;47.454;18.918;2023-02-13T17:47:00;15.25;;;8.50;;
67602;SDS011;54417;47.454;18.918;2023-02-13T17:52:24;26.38;;;10.52;;
67602;SDS011;54417;47.454;18.918;2023-02-13T17:57:52;22.33;;;11.48;;
67602;SDS011;54417;47.454;18.918;2023-02-13T18:03:17;35.83;;;15.43;;
67602;SDS011;54417;47.454;18.918;2023-02-13T18:08:43;37.42;;;18.00;;
67602;SDS011;54417;47.454;18.918;2023-02-13T18:14:08;33.35;;;14.68;;
67602;SDS011;54417;47.454;18.918;2023-02-13T18:19:32;28.75;;;14.00;;
67602;SDS011;54417;47.454;18.918;2023-02-13T18:24:56;30.38;;;15.40;;
67602;SDS011;54417;47.454;18.918;2023-02-13T18:30:21;27.38;;;15.98;;
67602;SDS011;54417;47.454;18.918;2023-02-13T18:35:45;32.67;;;16.58;;
67602;SDS011;54417;47.454;18.918;2023-02-13T18:41:09;37.30;;;18.65;;
67602;SDS011;54417;47.454;18.918;2023-02-13T18:46:34;49.33;;;24.38;;
67602;SDS011;54417;47.454;18.918;2023-02-13T18:51:58;49.63;;;22.67;;
67602;SDS011;54417;47.454;18.918;2023-02-13T18:57:24;42.13;;;20.77;;
67602;SDS011;54417;47.454;18.918;2023-02-13T19:02:49;47.45;;;20.83;;
67602;SDS011;54417;47.454;18.918;2023-02-13T19:08:13;41.50;;;19.70;;
67602;SDS011;54417;47.454;18.918;2023-02-13T19:13:36;45.33;;;18.83;;
67602;SDS011;54417;47.454;18.918;2023-02-13T19:19:02;43.15;;;19.55;;
67602;SDS011;54417;47.454;18.918;2023-02-13T19:24:27;35.97;;;18.83;;
67602;SDS011;54417;47.454;18.918;2023-02-13T19:29:51;42.60;;;20.13;;
67602;SDS011;54417;47.454;18.918;2023-02-13T19:35:17;36.65;;;19.42;;
67602;SDS011;54417;47.454;18.918;2023-02-13T19:40:41;36.05;;;19.75;;
67602;SDS011;54417;47.454;18.918;2023-02-13T19:46:05;39.67;;;20.20;;
67602;SDS011;54417;47.454;18.918;2023-02-13T19:51:33;43.70;;;21.75;;
67602;SDS011;54417;47.454;18.918;2023-02-13T19:56:57;55.63;;;28.02;;
67602;SDS011;54417;47.454;18.918;2023-02-13T20:02:22;41.40;;;22.05;;
67602;SDS011;54417;47.454;18.918;2023-02-13T20:07:48;46.75;;;23.85;;
67602;SDS011;54417;47.454;18.918;2023-02-13T20:13:11;52.33;;;23.70;;
67602;SDS011;54417;47.454;18.918;2023-02-13T20:18:35;46.22;;;20.77;;
67602;SDS011;54417;47.454;18.918;2023-02-13T20:24:02;44.80;;;22.05;;
67602;SDS011;54417;47.454;18.918;2023-02-13T20:29:27;41.45;;;21.20;;
67602;SDS011;54417;47.454;18.918;2023-02-13T20:34:50;46.47;;;21.50;;
67602;SDS011;54417;47.454;18.918;2023-02-13T20:40:22;38.90;;;19.35;;
67602;SDS011;54417;47.454;18.918;2023-02-13T20:45:46;39.50;;;20.90;;
67602;SDS011;54417;47.454;18.918;2023-02-13T20:51:10;43.65;;;21.33;;
67602;SDS011;54417;47.454;18.918;2023-02-13T20:56:37;41.85;;;20.15;;
67602;SDS011;54417;47.454;18.918;2023-02-13T21:02:01;38.33;;;19.48;;
67602;SDS011;54417;47.454;18.918;2023-02-13T21:07:24;37.60;;;18.15;;
67602;SDS011;54417;47.454;18.918;2023-02-13T21:12:50;34.80;;;18.95;;
67602;SDS011;54417;47.454;18.918;2023-02-13T21:18:13;42.35;;;19.77;;
67602;SDS011;54417;47.454;18.918;2023-02-13T21:23:38;37.63;;;19.00;;
67602;SDS011;54417;47.454;18.918;2023-02-13T21:29:03;33.88;;;17.42;;
67602;SDS011;54417;47.454;18.918;2023-02-13T21:34:28;36.20;;;18.40;;
67602;SDS011;54417;47.454;18.918;2023-02-13T21:39:52;36.92;;;18.20;;
67602;SDS011;54417;47.454;18.918;2023-02-13T21:45:17;28.90;;;15.77;;
67602;SDS011;54417;47.454;18.918;2023-02-13T21:50:41;34.67;;;17.40;;
67602;SDS011;54417;47.454;18.918;2023-02-13T21:56:06;33.45;;;16.23;;
67602;SDS011;54417;47.454;18.918;2023-02-13T22:01:32;31.27;;;16.17;;
67602;SDS011;54417;47.454;18.918;2023-02-13T22:06:57;39.95;;;18.52;;
67602;SDS011;54417;47.454;18.918;2023-02-13T22:12:21;38.33;;;18.08;;
67602;SDS011;54417;47.454;18.918;2023-02-13T22:17:46;36.15;;;16.80;;
67602;SDS011;54417;47.454;18.918;2023-02-13T22:23:10;31.65;;;14.90;;
67602;SDS011;54417;47.454;18.918;2023-02-13T22:28:34;47.03;;;16.67;;
67602;SDS011;54417;47.454;18.918;2023-02-13T22:33:59;38.90;;;17.08;;
67602;SDS011;54417;47.454;18.918;2023-02-13T22:39:26;31.38;;;17.00;;
67602;SDS011;54417;47.454;18.918;2023-02-13T22:44:50;38.47;;;18.70;;
67602;SDS011;54417;47.454;18.918;2023-02-13T22:50:15;36.08;;;16.73;;
67602;SDS011;54417;47.454;18.918;2023-02-13T22:55:39;53.65;;;25.08;;
67602;SDS011;54417;47.454;18.918;2023-02-13T23:01:07;31.23;;;16.00;;
67602;SDS011;54417;47.454;18.918;2023-02-13T23:06:34;29.40;;;13.82;;
67602;SDS011;54417;47.454;18.918;2023-02-13T23:11:58;27.98;;;14.20;;
67602;SDS011;54417;47.454;18.918;2023-02-13T23:17:39;41.47;;;18.25;;
67602;SDS011;54417;47.454;18.918;2023-02-13T23:23:23;35.33;;;16.23;;
67602;SDS011;54417;47.454;18.918;2023-02-13T23:28:47;33.63;;;16.23;;
67602;SDS011;54417;47.454;18.918;2023-02-13T23:34:11;34.60;;;16.13;;
67602;SDS011;54417;47.454;18.918;2023-02-13T23:39:36;27.88;;;13.13;;
67602;SDS011;54417;47.454;18.918;2023-02-13T23:44:59;35.83;;;16.77;;
67602;SDS011;54417;47.454;18.918;2023-02-13T23:50:23;30.85;;;15.77;;
67602;SDS011;54417;47.454;18.918;2023-02-13T23:55:48;32.38;;;13.68;;
